createdAt,value
2022-10-01T00:00:15.540Z,99991.59
2022-10-01T00:03:20.086Z,99985.34
2022-10-01T00:06:22.780Z,99974.31
2022-10-01T00:09:26.763Z,99980.47
2022-10-01T00:12:29.284Z,99968.06
2022-10-01T00:15:32.674Z,99958.28
2022-10-01T00:18:40.027Z,99949.38
2022-10-01T00:21:42.914Z,99946.56
2022-10-01T00:24:47.369Z,99949.22
2022-10-01T00:27:50.469Z,99991.75
2022-10-01T00:30:53.076Z,100046.16
2022-10-01T00:34:00.985Z,100081.44
2022-10-01T00:37:04.680Z,100013.25
2022-10-01T00:40:08.432Z,99961.91
2022-10-01T00:43:25.924Z,99971.97
2022-10-01T00:46:33.259Z,99983.81
2022-10-01T00:49:37.938Z,99977.69
2022-10-01T00:52:42.057Z,99979.06
2022-10-01T00:55:51.862Z,99977.53
2022-10-01T00:58:56.076Z,99967.78
2022-10-01T01:01:59.861Z,99968.50
2022-10-01T01:05:04.206Z,99972.25
2022-10-01T01:08:08.839Z,99963.03
2022-10-01T01:11:21.562Z,99966.94
2022-10-01T01:14:56.163Z,99971.66
2022-10-01T01:18:20.205Z,99976.72
2022-10-01T01:21:37.207Z,99975.31
2022-10-01T01:24:55.967Z,99976.84
2022-10-01T01:27:58.482Z,99976.44
2022-10-01T01:31:08.265Z,99963.87
2022-10-01T01:34:13.135Z,99947.44
2022-10-01T01:37:20.493Z,99947.25
2022-10-01T01:40:25.400Z,99953.41
2022-10-01T01:43:35.721Z,99966.09
2022-10-01T01:46:43.543Z,99982.00
2022-10-01T01:49:46.672Z,99998.34
2022-10-01T01:52:49.206Z,100000.44
2022-10-01T01:55:53.338Z,100008.78
2022-10-01T01:58:57.400Z,100003.78
2022-10-01T02:02:00.663Z,99992.47
2022-10-01T02:05:08.891Z,99986.22
2022-10-01T02:08:16.187Z,99980.47
2022-10-01T02:11:28.731Z,99968.63
2022-10-01T02:14:50.321Z,99968.19
2022-10-01T02:18:22.251Z,99965.97
2022-10-01T02:21:40.122Z,99947.00
2022-10-01T02:24:58.504Z,99933.03
2022-10-01T02:28:11.187Z,99924.53
2022-10-01T02:31:15.727Z,99941.53
2022-10-01T02:34:22.858Z,99947.94
2022-10-01T02:37:27.695Z,99950.16
2022-10-01T02:40:34.055Z,99962.16
2022-10-01T02:43:47.250Z,99956.88
2022-10-01T02:46:52.429Z,99966.34
2022-10-01T02:49:55.440Z,99970.84
2022-10-01T02:53:13.504Z,99963.69
2022-10-01T02:56:36.714Z,99966.25
2022-10-01T02:59:39.340Z,99980.19
2022-10-01T03:02:42.332Z,99979.34
2022-10-01T03:05:44.928Z,99979.19
2022-10-01T03:08:47.720Z,99975.28
2022-10-01T03:11:50.304Z,99984.50
2022-10-01T03:14:53.813Z,99987.84
2022-10-01T03:17:56.339Z,99973.34
2022-10-01T03:20:59.405Z,99987.44
2022-10-01T03:24:02.221Z,99984.50
2022-10-01T03:27:05.312Z,99986.75
2022-10-01T03:30:08.502Z,99986.56
2022-10-01T03:33:13.866Z,99979.91
2022-10-01T03:36:16.662Z,99973.62
2022-10-01T03:39:19.619Z,99970.00
2022-10-01T03:42:22.216Z,99988.44
2022-10-01T03:45:25.074Z,100017.44
2022-10-01T03:48:28.888Z,99988.56
2022-10-01T03:51:32.549Z,100015.47
2022-10-01T03:54:35.417Z,100020.78
2022-10-01T03:57:38.300Z,100017.44
2022-10-01T04:00:41.753Z,100012.94
2022-10-01T04:03:44.698Z,100008.78
2022-10-01T04:06:47.339Z,99997.50
2022-10-01T04:09:51.139Z,99985.78
2022-10-01T04:12:55.587Z,99986.88
2022-10-01T04:15:58.580Z,99984.66
2022-10-01T04:19:01.290Z,99985.50
2022-10-01T04:22:04.079Z,99970.28
2022-10-01T04:25:11.539Z,99965.53
2022-10-01T04:28:15.055Z,99955.50
2022-10-01T04:31:26.952Z,99958.03
2022-10-01T04:34:49.052Z,99966.94
2022-10-01T04:38:01.913Z,99961.09
2022-10-01T04:41:04.803Z,99956.78
2022-10-01T04:44:07.307Z,99955.78
2022-10-01T04:47:10.423Z,99955.22
2022-10-01T04:50:13.028Z,99955.22
2022-10-01T04:53:21.451Z,99966.09
2022-10-01T04:56:23.934Z,99964.72
2022-10-01T04:59:26.795Z,99967.78
2022-10-01T05:02:33.321Z,99965.41
2022-10-01T05:05:36.624Z,99967.91
2022-10-01T05:08:39.342Z,99968.06
2022-10-01T05:11:42.345Z,99979.63
2022-10-01T05:14:44.760Z,99990.66
2022-10-01T05:17:47.613Z,100009.19
2022-10-01T05:20:50.100Z,100014.91
2022-10-01T05:23:53.190Z,100019.94
2022-10-01T05:26:55.909Z,100042.69
2022-10-01T05:29:58.755Z,100048.00
2022-10-01T05:33:04.960Z,100027.22
2022-10-01T05:36:07.734Z,100016.19
2022-10-01T05:39:10.897Z,100020.78
2022-10-01T05:42:15.059Z,100022.75
2022-10-01T05:45:20.069Z,100007.13
2022-10-01T05:48:22.936Z,100001.25
2022-10-01T05:51:25.853Z,99991.34
2022-10-01T05:54:29.633Z,99992.06
2022-10-01T05:57:32.232Z,99985.09
2022-10-01T06:00:35.977Z,99976.72
2022-10-01T06:03:39.171Z,99990.78
2022-10-01T06:06:42.036Z,99990.94
2022-10-01T06:09:45.261Z,100000.56
2022-10-01T06:12:48.660Z,99992.06
2022-10-01T06:15:52.843Z,99998.19
2022-10-01T06:18:57.627Z,99973.50
2022-10-01T06:22:00.640Z,99962.31
2022-10-01T06:25:03.363Z,99955.22
2022-10-01T06:28:11.892Z,99982.28
2022-10-01T06:31:14.457Z,99975.31
2022-10-01T06:34:17.365Z,99973.38
2022-10-01T06:37:19.873Z,99975.88
2022-10-01T06:40:29.941Z,99969.56
2022-10-01T06:43:33.711Z,99974.62
2022-10-01T06:46:37.613Z,99968.59
2022-10-01T06:49:40.291Z,99964.97
2022-10-01T06:52:49.380Z,99967.19
2022-10-01T06:55:55.565Z,99968.31
2022-10-01T06:58:58.804Z,99972.50
2022-10-01T07:02:05.592Z,99983.69
2022-10-01T07:05:09.432Z,99984.22
2022-10-01T07:08:13.127Z,99991.63
2022-10-01T07:11:16.672Z,99996.13
2022-10-01T07:14:20.487Z,99989.81
2022-10-01T07:17:23.510Z,99977.38
2022-10-01T07:20:26.218Z,99977.25
2022-10-01T07:23:29.061Z,99970.13
2022-10-01T07:26:44.818Z,99963.72
2022-10-01T07:29:50.900Z,99958.50
2022-10-01T07:32:54.404Z,99949.88
2022-10-01T07:36:05.718Z,99953.06
2022-10-01T07:39:10.404Z,99954.63
2022-10-01T07:42:13.195Z,99958.41
2022-10-01T07:45:15.821Z,99960.31
2022-10-01T07:48:20.877Z,99956.84
2022-10-01T07:51:24.569Z,99943.28
2022-10-01T07:54:27.558Z,99938.59
2022-10-01T07:57:30.451Z,99956.75
2022-10-01T08:00:34.843Z,99958.69
2022-10-01T08:03:37.843Z,99962.47
2022-10-01T08:06:40.310Z,99954.78
2022-10-01T08:09:43.356Z,99962.59
2022-10-01T08:12:46.402Z,99952.28
2022-10-01T08:15:54.702Z,99950.59
2022-10-01T08:18:57.431Z,99940.41
2022-10-01T08:22:00.431Z,99937.75
2022-10-01T08:25:03.721Z,99950.00
2022-10-01T08:28:08.331Z,99943.59
2022-10-01T08:31:11.027Z,99953.88
2022-10-01T08:34:14.673Z,99960.88
2022-10-01T08:37:17.235Z,99954.28
2022-10-01T08:40:21.781Z,99945.66
2022-10-01T08:43:38.472Z,99929.03
2022-10-01T08:46:41.644Z,99932.53
2022-10-01T08:49:50.985Z,99930.44
2022-10-01T08:53:02.491Z,99925.44
2022-10-01T08:56:15.102Z,99911.69
2022-10-01T08:59:43.792Z,99900.00
2022-10-01T09:02:47.227Z,99921.28
2022-10-01T09:06:15.372Z,99913.28
2022-10-01T09:09:41.638Z,99915.97
2022-10-01T09:13:04.988Z,99909.94
2022-10-01T09:16:21.329Z,99911.59
2022-10-01T09:19:55.089Z,99905.31
2022-10-01T09:23:24.022Z,99900.47
2022-10-01T09:26:26.959Z,99908.91
2022-10-01T09:29:51.407Z,99913.75
2022-10-01T09:33:00.141Z,99910.53
2022-10-01T09:36:11.482Z,99910.47
2022-10-01T09:39:22.007Z,99897.44
2022-10-01T09:42:29.718Z,99894.69
2022-10-01T09:45:32.602Z,99898.84
2022-10-01T09:48:56.839Z,99903.66
2022-10-01T09:52:15.285Z,99907.31
2022-10-01T09:55:28.307Z,99903.97
2022-10-01T09:58:35.096Z,99888.84
2022-10-01T10:01:51.901Z,99879.75
2022-10-01T10:05:04.904Z,99879.91
2022-10-01T10:08:23.603Z,99890.25
2022-10-01T10:11:29.996Z,99872.69
2022-10-01T10:14:39.635Z,99871.13
2022-10-01T10:17:44.341Z,99866.59
2022-10-01T10:20:52.951Z,99851.94
2022-10-01T10:23:59.138Z,99848.53
2022-10-01T10:27:05.334Z,99852.69
2022-10-01T10:30:17.369Z,99842.75
2022-10-01T10:33:31.946Z,99851.00
2022-10-01T10:36:37.392Z,99851.31
2022-10-01T10:39:48.151Z,99846.25
2022-10-01T10:42:55.765Z,99839.13
2022-10-01T10:46:01.823Z,99838.53
2022-10-01T10:49:21.886Z,99830.53
2022-10-01T10:52:36.738Z,99826.59
2022-10-01T10:55:40.122Z,99825.75
2022-10-01T10:58:45.134Z,99821.19
2022-10-01T11:01:49.552Z,99808.50
2022-10-01T11:04:55.114Z,99805.88
2022-10-01T11:08:04.530Z,99806.59
2022-10-01T11:12:00.165Z,99812.28
2022-10-01T11:15:11.345Z,99802.56
2022-10-01T11:18:13.781Z,99793.53
2022-10-01T11:21:48.608Z,99784.44
2022-10-01T11:25:01.082Z,99786.59
2022-10-01T11:28:22.680Z,99770.44
2022-10-01T11:31:49.657Z,99766.78
2022-10-01T11:35:05.123Z,99761.75
2022-10-01T11:38:45.653Z,99750.59
2022-10-01T11:41:56.687Z,99750.13
2022-10-01T11:45:07.534Z,99744.69
2022-10-01T11:48:25.215Z,99744.78
2022-10-01T11:51:37.191Z,99739.78
2022-10-01T11:55:20.898Z,99736.09
2022-10-01T11:58:50.909Z,99741.28
2022-10-01T12:02:04.189Z,99735.06
2022-10-01T12:05:25.793Z,99727.25
2022-10-01T12:08:37.643Z,99718.75
2022-10-01T12:11:52.762Z,99717.13
2022-10-01T12:15:09.087Z,99704.03
2022-10-01T12:18:50.054Z,99694.53
2022-10-01T12:22:04.634Z,99691.69
2022-10-01T12:25:14.468Z,99690.28
2022-10-01T12:28:26.505Z,99683.88
2022-10-01T12:31:58.404Z,99687.31
2022-10-01T12:35:22.824Z,99677.59
2022-10-01T12:38:37.626Z,99683.00
2022-10-01T12:42:09.364Z,99685.19
2022-10-01T12:45:28.424Z,99683.16
2022-10-01T12:48:54.822Z,99689.28
2022-10-01T12:52:19.429Z,99693.16
2022-10-01T12:55:44.777Z,99688.00
2022-10-01T12:59:06.475Z,99684.59
2022-10-01T13:02:39.449Z,99676.75
2022-10-01T13:06:03.342Z,99674.16
2022-10-01T13:09:38.268Z,99662.69
2022-10-01T13:13:18.160Z,99640.53
2022-10-01T13:16:25.226Z,99631.06
2022-10-01T13:19:48.793Z,99623.34
2022-10-01T13:23:18.682Z,99630.13
2022-10-01T13:26:45.911Z,99629.41
2022-10-01T13:29:59.981Z,99620.09
2022-10-01T13:33:05.129Z,99623.56
2022-10-01T13:36:10.621Z,99625.41
2022-10-01T13:39:24.062Z,99635.87
2022-10-01T13:42:37.657Z,99637.22
2022-10-01T13:45:59.596Z,99623.94
2022-10-01T13:49:25.420Z,99606.28
2022-10-01T13:52:28.524Z,99588.94
2022-10-01T13:55:32.291Z,99590.53
2022-10-01T13:58:42.058Z,99582.22
2022-10-01T14:01:44.621Z,99582.16
2022-10-01T14:05:08.904Z,99575.72
2022-10-01T14:08:44.233Z,99572.91
2022-10-01T14:12:14.963Z,99572.75
2022-10-01T14:15:58.682Z,99568.63
2022-10-01T14:19:01.962Z,99574.28
2022-10-01T14:22:25.588Z,99570.78
2022-10-01T14:25:49.193Z,99569.88
2022-10-01T14:29:00.653Z,99566.56
2022-10-01T14:32:42.312Z,99570.62
2022-10-01T14:35:59.645Z,99564.06
2022-10-01T14:39:25.018Z,99568.75
2022-10-01T14:42:27.837Z,99553.19
2022-10-01T14:45:53.825Z,99552.66
2022-10-01T14:49:00.943Z,99547.06
2022-10-01T14:52:16.895Z,99544.37
2022-10-01T14:55:23.296Z,99547.94
2022-10-01T14:58:38.477Z,99541.34
2022-10-01T15:01:43.583Z,99540.47
2022-10-01T15:04:52.142Z,99539.62
2022-10-01T15:07:54.782Z,99546.53
2022-10-01T15:11:03.744Z,99543.25
2022-10-01T15:14:11.306Z,99538.00
2022-10-01T15:17:21.477Z,99530.47
2022-10-01T15:20:27.378Z,99537.25
2022-10-01T15:23:31.304Z,99546.75
2022-10-01T15:26:34.373Z,99540.66
2022-10-01T15:29:40.192Z,99545.94
2022-10-01T15:32:48.397Z,99556.75
2022-10-01T15:36:03.514Z,99563.81
2022-10-01T15:39:30.614Z,99576.44
2022-10-01T15:42:38.358Z,99570.38
2022-10-01T15:45:42.116Z,99576.16
2022-10-01T15:48:46.140Z,99570.81
2022-10-01T15:52:18.927Z,99578.53
2022-10-01T15:55:21.843Z,99578.09
2022-10-01T15:58:35.927Z,99569.44
2022-10-01T16:01:40.744Z,99571.31
2022-10-01T16:04:44.103Z,99569.34
2022-10-01T16:07:52.305Z,99570.06
2022-10-01T16:11:24.439Z,99571.91
2022-10-01T16:14:39.421Z,99579.81
2022-10-01T16:17:56.757Z,99588.50
2022-10-01T16:20:59.388Z,99593.09
2022-10-01T16:24:02.599Z,99596.63
2022-10-01T16:27:05.375Z,99591.00
2022-10-01T16:30:08.223Z,99593.34
2022-10-01T16:33:10.940Z,99601.00
2022-10-01T16:36:20.222Z,99601.69
2022-10-01T16:39:24.548Z,99598.34
2022-10-01T16:42:27.576Z,99604.31
2022-10-01T16:45:36.722Z,99609.94
2022-10-01T16:48:41.565Z,99609.94
2022-10-01T16:51:44.579Z,99611.63
2022-10-01T16:54:48.630Z,99618.28
2022-10-01T16:57:54.736Z,99606.97
2022-10-01T17:01:06.614Z,99602.97
2022-10-01T17:04:13.649Z,99603.13
2022-10-01T17:07:16.846Z,99586.62
2022-10-01T17:10:22.390Z,99593.47
2022-10-01T17:13:26.553Z,99590.16
2022-10-01T17:16:29.600Z,99597.97
2022-10-01T17:19:32.953Z,99596.47
2022-10-01T17:22:35.737Z,99592.66
2022-10-01T17:25:42.576Z,99587.50
2022-10-01T17:28:49.395Z,99579.63
2022-10-01T17:31:53.613Z,99586.31
2022-10-01T17:35:07.350Z,99581.31
2022-10-01T17:38:11.538Z,99580.28
2022-10-01T17:41:14.655Z,99586.59
2022-10-01T17:44:18.049Z,99588.09
2022-10-01T17:47:20.641Z,99586.25
2022-10-01T17:50:24.385Z,99581.59
2022-10-01T17:53:32.886Z,99589.41
2022-10-01T17:56:42.382Z,99595.81
2022-10-01T17:59:45.594Z,99589.50
2022-10-01T18:02:56.048Z,99601.00
2022-10-01T18:06:05.619Z,99593.19
2022-10-01T18:09:11.082Z,99607.44
2022-10-01T18:12:14.785Z,99599.31
2022-10-01T18:15:22.640Z,99610.34
2022-10-01T18:19:51.195Z,99619.66
2022-10-01T18:21:52.342Z,99640.00
2022-10-01T18:24:55.703Z,99638.72
2022-10-01T18:27:58.358Z,99636.31
2022-10-01T18:31:18.859Z,99637.03
2022-10-01T18:34:43.805Z,99661.09
2022-10-01T18:37:54.986Z,99666.97
2022-10-01T18:41:18.207Z,99660.31
2022-10-01T18:44:26.479Z,99667.66
2022-10-01T18:48:13.594Z,99680.06
2022-10-01T18:51:39.805Z,99678.91
2022-10-01T18:54:42.764Z,99679.47
2022-10-01T18:58:30.200Z,99679.38
2022-10-01T19:01:54.150Z,99686.53
2022-10-01T19:05:15.520Z,99676.31
2022-10-01T19:08:24.258Z,99677.50
2022-10-01T19:11:55.143Z,99679.25
2022-10-01T19:15:12.859Z,99672.16
2022-10-01T19:18:36.516Z,99686.28
2022-10-01T19:22:01.730Z,99682.78
2022-10-01T19:25:29.612Z,99686.97
2022-10-01T19:29:21.466Z,99694.50
2022-10-01T19:33:03.830Z,99699.66
2022-10-01T19:36:24.514Z,99700.91
2022-10-01T19:39:36.608Z,99706.22
2022-10-01T19:42:44.607Z,99708.72
2022-10-01T19:46:09.398Z,99706.88
2022-10-01T19:49:25.578Z,99701.75
2022-10-01T19:52:36.634Z,99695.34
2022-10-01T19:55:43.006Z,99704.97
2022-10-01T19:58:46.033Z,99704.91
2022-10-01T20:02:12.108Z,99709.78
2022-10-01T20:05:28.606Z,99719.87
2022-10-01T20:08:34.237Z,99720.72
2022-10-01T20:12:09.871Z,99719.81
2022-10-01T20:15:46.439Z,99724.97
2022-10-01T20:19:27.731Z,99727.84
2022-10-01T20:23:04.457Z,99730.94
2022-10-01T20:26:28.845Z,99735.88
2022-10-01T20:29:55.253Z,99728.00
2022-10-01T20:33:02.499Z,99739.06
2022-10-01T20:36:14.269Z,99735.97
2022-10-01T20:39:23.606Z,99742.63
2022-10-01T20:42:35.927Z,99749.91
2022-10-01T20:45:51.774Z,99739.12
2022-10-01T20:49:04.167Z,99744.81
2022-10-01T20:52:44.307Z,99755.44
2022-10-01T20:56:02.064Z,99758.56
2022-10-01T20:59:10.586Z,99772.53
2022-10-01T21:02:43.784Z,99769.78
2022-10-01T21:05:57.529Z,99784.03
2022-10-01T21:09:11.623Z,99788.00
2022-10-01T21:12:21.898Z,99792.03
2022-10-01T21:15:36.589Z,99798.31
2022-10-01T21:19:05.646Z,99796.25
2022-10-01T21:22:37.362Z,99790.69
2022-10-01T21:25:50.406Z,99789.69
2022-10-01T21:29:05.148Z,99790.13
2022-10-01T21:32:14.190Z,99791.66
2022-10-01T21:35:24.781Z,99801.81
2022-10-01T21:38:46.602Z,99794.19
2022-10-01T21:42:16.254Z,99799.56
2022-10-01T21:45:21.125Z,99805.03
2022-10-01T21:48:42.965Z,99802.22
2022-10-01T21:52:03.160Z,99810.59
2022-10-01T21:55:45.033Z,99808.69
2022-10-01T21:58:53.142Z,99804.50
2022-10-01T22:02:26.958Z,99802.59
2022-10-01T22:06:12.933Z,99803.16
2022-10-01T22:09:32.911Z,99802.31
2022-10-01T22:12:42.740Z,99812.09
2022-10-01T22:15:52.754Z,99818.56
2022-10-01T22:18:58.055Z,99820.22
2022-10-01T22:22:26.094Z,99823.28
2022-10-01T22:25:56.493Z,99803.22
2022-10-01T22:29:02.067Z,99814.34
2022-10-01T22:32:06.838Z,99810.75
2022-10-01T22:35:18.278Z,99815.22
2022-10-01T22:38:26.575Z,99808.19
2022-10-01T22:41:58.134Z,99825.47
2022-10-01T22:45:15.253Z,99829.94
2022-10-01T22:48:20.849Z,99824.59
2022-10-01T22:51:50.057Z,99832.69
2022-10-01T22:55:05.303Z,99840.63
2022-10-01T22:58:16.154Z,99844.22
2022-10-01T23:01:29.368Z,99852.72
2022-10-01T23:05:07.318Z,99845.88
2022-10-01T23:08:47.908Z,99841.97
2022-10-01T23:12:11.654Z,99848.22
2022-10-01T23:15:36.077Z,99850.56
2022-10-01T23:19:07.541Z,99864.47
2022-10-01T23:22:25.344Z,99857.00
2022-10-01T23:25:49.933Z,99861.28
2022-10-01T23:28:58.221Z,99861.16
2022-10-01T23:32:27.634Z,99865.56
2022-10-01T23:35:42.867Z,99875.19
2022-10-01T23:39:14.062Z,99864.63
2022-10-01T23:42:38.587Z,99869.13
2022-10-01T23:46:01.656Z,99875.03
2022-10-01T23:49:16.622Z,99877.13
2022-10-01T23:52:50.546Z,99884.69
2022-10-01T23:56:28.139Z,99880.16
